sensor_id;sensor_type;location;lat;lon;timestamp;P1;durP1;ratioP1;P2;durP2;ratioP2
8938;SDS011;4504;48.810;9.172;2022-08-21T00:00:18;104.57;;;2.00;;
8938;SDS011;4504;48.810;9.172;2022-08-21T00:02:49;105.80;;;2.60;;
8938;SDS011;4504;48.810;9.172;2022-08-21T00:05:19;104.67;;;1.90;;
8938;SDS011;4504;48.810;9.172;2022-08-21T00:07:47;104.30;;;2.50;;
8938;SDS011;4504;48.810;9.172;2022-08-21T00:10:15;103.10;;;2.30;;
8938;SDS011;4504;48.810;9.172;2022-08-21T00:12:42;103.70;;;2.20;;
8938;SDS011;4504;48.810;9.172;2022-08-21T00:15:11;108.67;;;2.13;;
8938;SDS011;4504;48.810;9.172;2022-08-21T00:17:40;103.43;;;2.15;;
8938;SDS011;4504;48.810;9.172;2022-08-21T00:20:08;103.17;;;2.43;;
8938;SDS011;4504;48.810;9.172;2022-08-21T00:22:41;104.70;;;2.57;;
8938;SDS011;4504;48.810;9.172;2022-08-21T00:25:09;105.70;;;2.20;;
8938;SDS011;4504;48.810;9.172;2022-08-21T00:27:36;104.87;;;2.40;;
8938;SDS011;4504;48.810;9.172;2022-08-21T00:30:04;104.90;;;2.50;;
8938;SDS011;4504;48.810;9.172;2022-08-21T00:32:32;106.25;;;2.90;;
8938;SDS011;4504;48.810;9.172;2022-08-21T00:35:00;107.20;;;2.60;;
8938;SDS011;4504;48.810;9.172;2022-08-21T00:37:27;103.60;;;2.23;;
8938;SDS011;4504;48.810;9.172;2022-08-21T00:39:55;105.60;;;2.57;;
8938;SDS011;4504;48.810;9.172;2022-08-21T00:42:22;104.40;;;2.20;;
8938;SDS011;4504;48.810;9.172;2022-08-21T00:44:49;103.87;;;2.07;;
8938;SDS011;4504;48.810;9.172;2022-08-21T00:47:17;103.47;;;2.03;;
8938;SDS011;4504;48.810;9.172;2022-08-21T00:49:44;105.40;;;2.27;;
8938;SDS011;4504;48.810;9.172;2022-08-21T00:52:13;104.60;;;2.13;;
8938;SDS011;4504;48.810;9.172;2022-08-21T00:54:45;104.50;;;2.33;;
8938;SDS011;4504;48.810;9.172;2022-08-21T00:57:15;104.37;;;2.20;;
8938;SDS011;4504;48.810;9.172;2022-08-21T00:59:46;103.57;;;2.17;;
8938;SDS011;4504;48.810;9.172;2022-08-21T01:02:17;104.30;;;2.10;;
8938;SDS011;4504;48.810;9.172;2022-08-21T01:04:45;108.70;;;2.57;;
8938;SDS011;4504;48.810;9.172;2022-08-21T01:07:12;104.88;;;2.38;;
8938;SDS011;4504;48.810;9.172;2022-08-21T01:09:40;104.60;;;2.63;;
8938;SDS011;4504;48.810;9.172;2022-08-21T01:12:07;105.07;;;2.47;;
8938;SDS011;4504;48.810;9.172;2022-08-21T01:14:36;103.67;;;2.23;;
8938;SDS011;4504;48.810;9.172;2022-08-21T01:17:03;105.10;;;2.57;;
8938;SDS011;4504;48.810;9.172;2022-08-21T01:19:31;105.55;;;2.50;;
8938;SDS011;4504;48.810;9.172;2022-08-21T01:22:00;110.20;;;2.50;;
8938;SDS011;4504;48.810;9.172;2022-08-21T01:24:27;106.47;;;2.33;;
8938;SDS011;4504;48.810;9.172;2022-08-21T01:26:56;104.47;;;2.20;;
8938;SDS011;4504;48.810;9.172;2022-08-21T01:29:26;105.10;;;2.50;;
8938;SDS011;4504;48.810;9.172;2022-08-21T01:32:02;105.67;;;2.60;;
8938;SDS011;4504;48.810;9.172;2022-08-21T01:34:32;104.27;;;2.50;;
8938;SDS011;4504;48.810;9.172;2022-08-21T01:37:01;108.87;;;2.57;;
8938;SDS011;4504;48.810;9.172;2022-08-21T01:39:28;105.47;;;2.40;;
8938;SDS011;4504;48.810;9.172;2022-08-21T01:41:56;106.82;;;2.40;;
8938;SDS011;4504;48.810;9.172;2022-08-21T01:44:23;105.10;;;2.20;;
8938;SDS011;4504;48.810;9.172;2022-08-21T01:46:51;107.40;;;3.17;;
8938;SDS011;4504;48.810;9.172;2022-08-21T01:49:19;105.18;;;2.45;;
8938;SDS011;4504;48.810;9.172;2022-08-21T01:51:46;104.90;;;2.10;;
8938;SDS011;4504;48.810;9.172;2022-08-21T01:54:14;105.87;;;2.30;;
8938;SDS011;4504;48.810;9.172;2022-08-21T01:56:42;104.50;;;2.05;;
8938;SDS011;4504;48.810;9.172;2022-08-21T01:59:11;106.73;;;2.60;;
8938;SDS011;4504;48.810;9.172;2022-08-21T02:01:38;104.45;;;2.10;;
8938;SDS011;4504;48.810;9.172;2022-08-21T02:04:05;105.87;;;2.40;;
8938;SDS011;4504;48.810;9.172;2022-08-21T02:06:32;104.27;;;2.57;;
8938;SDS011;4504;48.810;9.172;2022-08-21T02:08:59;105.50;;;2.43;;
8938;SDS011;4504;48.810;9.172;2022-08-21T02:11:28;105.47;;;2.43;;
8938;SDS011;4504;48.810;9.172;2022-08-21T02:13:55;104.80;;;2.57;;
8938;SDS011;4504;48.810;9.172;2022-08-21T02:16:22;104.50;;;2.73;;
8938;SDS011;4504;48.810;9.172;2022-08-21T02:18:49;106.50;;;2.70;;
8938;SDS011;4504;48.810;9.172;2022-08-21T02:21:16;110.17;;;2.50;;
8938;SDS011;4504;48.810;9.172;2022-08-21T02:23:43;109.17;;;2.50;;
8938;SDS011;4504;48.810;9.172;2022-08-21T02:26:11;107.00;;;3.00;;
8938;SDS011;4504;48.810;9.172;2022-08-21T02:28:40;105.87;;;2.50;;
8938;SDS011;4504;48.810;9.172;2022-08-21T02:31:08;106.13;;;2.77;;
8938;SDS011;4504;48.810;9.172;2022-08-21T02:33:35;105.47;;;2.40;;
8938;SDS011;4504;48.810;9.172;2022-08-21T02:36:02;106.00;;;2.47;;
8938;SDS011;4504;48.810;9.172;2022-08-21T02:38:31;105.83;;;2.77;;
8938;SDS011;4504;48.810;9.172;2022-08-21T02:41:03;106.80;;;2.63;;
8938;SDS011;4504;48.810;9.172;2022-08-21T02:43:32;106.23;;;2.63;;
8938;SDS011;4504;48.810;9.172;2022-08-21T02:46:02;107.53;;;3.20;;
8938;SDS011;4504;48.810;9.172;2022-08-21T02:48:31;106.00;;;2.50;;
8938;SDS011;4504;48.810;9.172;2022-08-21T02:51:01;106.97;;;2.93;;
8938;SDS011;4504;48.810;9.172;2022-08-21T02:53:30;106.10;;;2.90;;
8938;SDS011;4504;48.810;9.172;2022-08-21T02:55:59;106.22;;;2.70;;
8938;SDS011;4504;48.810;9.172;2022-08-21T02:58:29;109.57;;;2.60;;
8938;SDS011;4504;48.810;9.172;2022-08-21T03:00:58;105.60;;;2.70;;
8938;SDS011;4504;48.810;9.172;2022-08-21T03:03:27;105.90;;;2.60;;
8938;SDS011;4504;48.810;9.172;2022-08-21T03:05:55;106.67;;;2.50;;
8938;SDS011;4504;48.810;9.172;2022-08-21T03:08:22;105.90;;;2.43;;
8938;SDS011;4504;48.810;9.172;2022-08-21T03:10:50;106.27;;;2.50;;
8938;SDS011;4504;48.810;9.172;2022-08-21T03:13:18;109.20;;;2.80;;
8938;SDS011;4504;48.810;9.172;2022-08-21T03:15:46;106.83;;;2.43;;
8938;SDS011;4504;48.810;9.172;2022-08-21T03:18:14;108.90;;;2.67;;
8938;SDS011;4504;48.810;9.172;2022-08-21T03:20:43;106.37;;;2.73;;
8938;SDS011;4504;48.810;9.172;2022-08-21T03:23:11;104.25;;;3.00;;
8938;SDS011;4504;48.810;9.172;2022-08-21T03:25:38;105.95;;;2.63;;
8938;SDS011;4504;48.810;9.172;2022-08-21T03:28:08;105.37;;;2.60;;
8938;SDS011;4504;48.810;9.172;2022-08-21T03:30:37;105.67;;;2.50;;
8938;SDS011;4504;48.810;9.172;2022-08-21T03:33:04;106.37;;;2.30;;
8938;SDS011;4504;48.810;9.172;2022-08-21T03:35:31;105.20;;;2.70;;
8938;SDS011;4504;48.810;9.172;2022-08-21T03:38:00;105.33;;;2.40;;
8938;SDS011;4504;48.810;9.172;2022-08-21T03:40:27;108.00;;;3.30;;
8938;SDS011;4504;48.810;9.172;2022-08-21T03:42:54;104.90;;;2.50;;
8938;SDS011;4504;48.810;9.172;2022-08-21T03:45:21;108.33;;;2.60;;
8938;SDS011;4504;48.810;9.172;2022-08-21T03:47:52;105.97;;;2.50;;
8938;SDS011;4504;48.810;9.172;2022-08-21T03:50:20;106.67;;;2.87;;
8938;SDS011;4504;48.810;9.172;2022-08-21T03:52:48;106.03;;;2.50;;
8938;SDS011;4504;48.810;9.172;2022-08-21T03:55:17;106.63;;;2.63;;
8938;SDS011;4504;48.810;9.172;2022-08-21T03:57:44;105.28;;;2.40;;
8938;SDS011;4504;48.810;9.172;2022-08-21T04:00:12;107.30;;;3.23;;
8938;SDS011;4504;48.810;9.172;2022-08-21T04:02:40;106.87;;;2.37;;
8938;SDS011;4504;48.810;9.172;2022-08-21T04:05:08;106.47;;;2.77;;
8938;SDS011;4504;48.810;9.172;2022-08-21T04:07:35;107.47;;;2.70;;
8938;SDS011;4504;48.810;9.172;2022-08-21T04:10:02;105.32;;;2.33;;
8938;SDS011;4504;48.810;9.172;2022-08-21T04:12:31;106.90;;;2.70;;
8938;SDS011;4504;48.810;9.172;2022-08-21T04:14:58;106.87;;;2.63;;
8938;SDS011;4504;48.810;9.172;2022-08-21T04:17:27;106.17;;;2.80;;
8938;SDS011;4504;48.810;9.172;2022-08-21T04:19:54;107.23;;;2.83;;
8938;SDS011;4504;48.810;9.172;2022-08-21T04:22:21;106.77;;;2.90;;
8938;SDS011;4504;48.810;9.172;2022-08-21T04:24:48;107.10;;;2.60;;
8938;SDS011;4504;48.810;9.172;2022-08-21T04:27:15;108.40;;;2.80;;
8938;SDS011;4504;48.810;9.172;2022-08-21T04:29:43;107.20;;;2.90;;
8938;SDS011;4504;48.810;9.172;2022-08-21T04:32:10;109.20;;;2.77;;
8938;SDS011;4504;48.810;9.172;2022-08-21T04:34:37;108.70;;;3.27;;
8938;SDS011;4504;48.810;9.172;2022-08-21T04:37:04;106.27;;;3.00;;
8938;SDS011;4504;48.810;9.172;2022-08-21T04:39:31;106.90;;;2.60;;
8938;SDS011;4504;48.810;9.172;2022-08-21T04:41:58;108.17;;;2.90;;
8938;SDS011;4504;48.810;9.172;2022-08-21T04:44:25;104.60;;;2.70;;
8938;SDS011;4504;48.810;9.172;2022-08-21T04:46:53;106.67;;;2.53;;
8938;SDS011;4504;48.810;9.172;2022-08-21T04:49:20;109.07;;;2.87;;
8938;SDS011;4504;48.810;9.172;2022-08-21T04:51:47;108.70;;;3.30;;
8938;SDS011;4504;48.810;9.172;2022-08-21T04:54:16;107.70;;;2.77;;
8938;SDS011;4504;48.810;9.172;2022-08-21T04:56:45;106.83;;;2.60;;
8938;SDS011;4504;48.810;9.172;2022-08-21T04:59:16;109.37;;;3.33;;
8938;SDS011;4504;48.810;9.172;2022-08-21T05:01:47;108.30;;;3.10;;
8938;SDS011;4504;48.810;9.172;2022-08-21T05:04:16;106.57;;;3.20;;
8938;SDS011;4504;48.810;9.172;2022-08-21T05:06:49;107.23;;;2.73;;
8938;SDS011;4504;48.810;9.172;2022-08-21T05:09:18;108.57;;;3.10;;
8938;SDS011;4504;48.810;9.172;2022-08-21T05:11:46;106.72;;;2.78;;
8938;SDS011;4504;48.810;9.172;2022-08-21T05:14:14;107.10;;;2.70;;
8938;SDS011;4504;48.810;9.172;2022-08-21T05:16:41;106.47;;;2.63;;
8938;SDS011;4504;48.810;9.172;2022-08-21T05:19:09;106.20;;;2.73;;
8938;SDS011;4504;48.810;9.172;2022-08-21T05:21:39;107.07;;;3.00;;
8938;SDS011;4504;48.810;9.172;2022-08-21T05:24:07;108.40;;;2.73;;
8938;SDS011;4504;48.810;9.172;2022-08-21T05:26:35;107.70;;;2.88;;
8938;SDS011;4504;48.810;9.172;2022-08-21T05:29:02;107.87;;;2.80;;
8938;SDS011;4504;48.810;9.172;2022-08-21T05:31:29;106.60;;;2.80;;
8938;SDS011;4504;48.810;9.172;2022-08-21T05:33:56;109.60;;;3.10;;
8938;SDS011;4504;48.810;9.172;2022-08-21T05:36:23;107.17;;;2.97;;
8938;SDS011;4504;48.810;9.172;2022-08-21T05:38:51;106.83;;;2.40;;
8938;SDS011;4504;48.810;9.172;2022-08-21T05:41:19;107.80;;;2.57;;
8938;SDS011;4504;48.810;9.172;2022-08-21T05:43:46;106.77;;;2.60;;
8938;SDS011;4504;48.810;9.172;2022-08-21T05:46:12;106.47;;;2.70;;
8938;SDS011;4504;48.810;9.172;2022-08-21T05:48:39;110.83;;;2.80;;
8938;SDS011;4504;48.810;9.172;2022-08-21T05:51:07;107.20;;;3.20;;
8938;SDS011;4504;48.810;9.172;2022-08-21T05:53:36;107.77;;;3.20;;
8938;SDS011;4504;48.810;9.172;2022-08-21T05:56:05;108.57;;;2.77;;
8938;SDS011;4504;48.810;9.172;2022-08-21T05:58:32;107.10;;;2.80;;
8938;SDS011;4504;48.810;9.172;2022-08-21T06:01:00;106.97;;;2.77;;
8938;SDS011;4504;48.810;9.172;2022-08-21T06:03:29;106.97;;;2.80;;
8938;SDS011;4504;48.810;9.172;2022-08-21T06:05:57;106.77;;;2.70;;
8938;SDS011;4504;48.810;9.172;2022-08-21T06:08:25;109.85;;;2.70;;
8938;SDS011;4504;48.810;9.172;2022-08-21T06:10:53;112.78;;;2.80;;
8938;SDS011;4504;48.810;9.172;2022-08-21T06:13:22;105.80;;;2.63;;
8938;SDS011;4504;48.810;9.172;2022-08-21T06:15:50;105.40;;;2.70;;
8938;SDS011;4504;48.810;9.172;2022-08-21T06:18:27;106.50;;;2.93;;
8938;SDS011;4504;48.810;9.172;2022-08-21T06:20:54;107.10;;;3.00;;
8938;SDS011;4504;48.810;9.172;2022-08-21T06:23:21;106.37;;;2.63;;
8938;SDS011;4504;48.810;9.172;2022-08-21T06:25:49;105.37;;;2.47;;
8938;SDS011;4504;48.810;9.172;2022-08-21T06:28:15;107.40;;;2.93;;
8938;SDS011;4504;48.810;9.172;2022-08-21T06:30:44;105.90;;;2.73;;
8938;SDS011;4504;48.810;9.172;2022-08-21T06:33:11;106.50;;;2.97;;
8938;SDS011;4504;48.810;9.172;2022-08-21T06:35:38;106.47;;;3.20;;
8938;SDS011;4504;48.810;9.172;2022-08-21T06:38:05;106.88;;;2.70;;
8938;SDS011;4504;48.810;9.172;2022-08-21T06:40:32;105.43;;;2.43;;
8938;SDS011;4504;48.810;9.172;2022-08-21T06:43:04;106.53;;;3.00;;
8938;SDS011;4504;48.810;9.172;2022-08-21T06:45:32;106.97;;;2.90;;
8938;SDS011;4504;48.810;9.172;2022-08-21T06:48:00;106.03;;;2.90;;
8938;SDS011;4504;48.810;9.172;2022-08-21T06:50:28;105.00;;;2.60;;
8938;SDS011;4504;48.810;9.172;2022-08-21T06:52:59;108.95;;;2.60;;
8938;SDS011;4504;48.810;9.172;2022-08-21T06:55:28;106.70;;;2.97;;
8938;SDS011;4504;48.810;9.172;2022-08-21T06:57:55;105.63;;;2.83;;
8938;SDS011;4504;48.810;9.172;2022-08-21T07:00:22;105.30;;;2.50;;
8938;SDS011;4504;48.810;9.172;2022-08-21T07:02:49;113.60;;;2.80;;
8938;SDS011;4504;48.810;9.172;2022-08-21T07:05:18;105.20;;;2.50;;
8938;SDS011;4504;48.810;9.172;2022-08-21T07:07:45;105.77;;;2.93;;
8938;SDS011;4504;48.810;9.172;2022-08-21T07:10:12;105.90;;;2.60;;
8938;SDS011;4504;48.810;9.172;2022-08-21T07:12:39;105.67;;;3.03;;
8938;SDS011;4504;48.810;9.172;2022-08-21T07:15:07;105.07;;;2.70;;
8938;SDS011;4504;48.810;9.172;2022-08-21T07:17:34;105.97;;;3.00;;
8938;SDS011;4504;48.810;9.172;2022-08-21T07:20:02;105.73;;;2.90;;
8938;SDS011;4504;48.810;9.172;2022-08-21T07:22:31;107.00;;;3.20;;
8938;SDS011;4504;48.810;9.172;2022-08-21T07:24:58;108.40;;;3.50;;
8938;SDS011;4504;48.810;9.172;2022-08-21T07:27:25;105.17;;;2.60;;
8938;SDS011;4504;48.810;9.172;2022-08-21T07:29:52;106.27;;;2.70;;
8938;SDS011;4504;48.810;9.172;2022-08-21T07:32:19;105.90;;;2.72;;
8938;SDS011;4504;48.810;9.172;2022-08-21T07:34:46;105.57;;;3.00;;
8938;SDS011;4504;48.810;9.172;2022-08-21T07:37:13;107.78;;;2.80;;
8938;SDS011;4504;48.810;9.172;2022-08-21T07:39:42;104.93;;;2.67;;
8938;SDS011;4504;48.810;9.172;2022-08-21T07:42:09;104.07;;;2.50;;
8938;SDS011;4504;48.810;9.172;2022-08-21T07:44:36;105.67;;;2.90;;
8938;SDS011;4504;48.810;9.172;2022-08-21T07:47:03;104.83;;;2.70;;
8938;SDS011;4504;48.810;9.172;2022-08-21T07:49:30;107.37;;;3.20;;
8938;SDS011;4504;48.810;9.172;2022-08-21T07:51:57;105.40;;;2.90;;
8938;SDS011;4504;48.810;9.172;2022-08-21T07:54:24;105.30;;;2.93;;
8938;SDS011;4504;48.810;9.172;2022-08-21T07:56:53;104.50;;;2.80;;
8938;SDS011;4504;48.810;9.172;2022-08-21T07:59:20;108.57;;;2.90;;
8938;SDS011;4504;48.810;9.172;2022-08-21T08:01:47;103.90;;;2.50;;
8938;SDS011;4504;48.810;9.172;2022-08-21T08:04:14;104.60;;;2.70;;
8938;SDS011;4504;48.810;9.172;2022-08-21T08:06:41;104.30;;;2.83;;
8938;SDS011;4504;48.810;9.172;2022-08-21T08:09:08;103.40;;;2.40;;
8938;SDS011;4504;48.810;9.172;2022-08-21T08:11:35;105.63;;;3.07;;
8938;SDS011;4504;48.810;9.172;2022-08-21T08:14:06;115.20;;;2.60;;
8938;SDS011;4504;48.810;9.172;2022-08-21T08:16:33;108.10;;;2.72;;
8938;SDS011;4504;48.810;9.172;2022-08-21T08:19:00;103.23;;;2.70;;
8938;SDS011;4504;48.810;9.172;2022-08-21T08:21:27;103.78;;;2.40;;
8938;SDS011;4504;48.810;9.172;2022-08-21T08:23:55;104.20;;;2.80;;
8938;SDS011;4504;48.810;9.172;2022-08-21T08:26:22;106.17;;;3.27;;
8938;SDS011;4504;48.810;9.172;2022-08-21T08:28:49;102.93;;;2.47;;
8938;SDS011;4504;48.810;9.172;2022-08-21T08:31:17;103.97;;;2.60;;
8938;SDS011;4504;48.810;9.172;2022-08-21T08:33:44;105.37;;;2.40;;
8938;SDS011;4504;48.810;9.172;2022-08-21T08:36:14;105.07;;;2.60;;
8938;SDS011;4504;48.810;9.172;2022-08-21T08:38:42;104.50;;;2.67;;
8938;SDS011;4504;48.810;9.172;2022-08-21T08:41:11;103.13;;;2.50;;
8938;SDS011;4504;48.810;9.172;2022-08-21T08:43:40;102.70;;;2.47;;
8938;SDS011;4504;48.810;9.172;2022-08-21T08:46:11;102.88;;;2.35;;
8938;SDS011;4504;48.810;9.172;2022-08-21T08:48:46;105.90;;;3.10;;
8938;SDS011;4504;48.810;9.172;2022-08-21T08:51:18;103.87;;;2.40;;
8938;SDS011;4504;48.810;9.172;2022-08-21T08:53:51;102.33;;;2.03;;
8938;SDS011;4504;48.810;9.172;2022-08-21T08:56:22;103.47;;;2.17;;
8938;SDS011;4504;48.810;9.172;2022-08-21T08:58:54;104.27;;;2.80;;
8938;SDS011;4504;48.810;9.172;2022-08-21T09:01:25;103.77;;;2.50;;
8938;SDS011;4504;48.810;9.172;2022-08-21T09:03:53;104.07;;;2.53;;
8938;SDS011;4504;48.810;9.172;2022-08-21T09:06:28;103.87;;;2.80;;
8938;SDS011;4504;48.810;9.172;2022-08-21T09:09:12;102.37;;;2.20;;
8938;SDS011;4504;48.810;9.172;2022-08-21T09:11:49;105.17;;;2.80;;
8938;SDS011;4504;48.810;9.172;2022-08-21T09:14:30;104.27;;;2.50;;
8938;SDS011;4504;48.810;9.172;2022-08-21T09:17:08;103.60;;;2.53;;
8938;SDS011;4504;48.810;9.172;2022-08-21T09:19:51;103.53;;;2.83;;
8938;SDS011;4504;48.810;9.172;2022-08-21T09:22:28;104.50;;;2.60;;
8938;SDS011;4504;48.810;9.172;2022-08-21T09:25:06;102.03;;;2.23;;
8938;SDS011;4504;48.810;9.172;2022-08-21T09:27:37;103.93;;;2.53;;
8938;SDS011;4504;48.810;9.172;2022-08-21T09:30:05;103.57;;;2.65;;
8938;SDS011;4504;48.810;9.172;2022-08-21T09:32:35;101.18;;;2.10;;
8938;SDS011;4504;48.810;9.172;2022-08-21T09:35:07;103.77;;;2.60;;
8938;SDS011;4504;48.810;9.172;2022-08-21T09:37:45;102.20;;;2.23;;
8938;SDS011;4504;48.810;9.172;2022-08-21T09:43:06;104.00;;;2.60;;
8938;SDS011;4504;48.810;9.172;2022-08-21T09:45:42;102.30;;;2.30;;
8938;SDS011;4504;48.810;9.172;2022-08-21T09:48:11;102.17;;;2.80;;
8938;SDS011;4504;48.810;9.172;2022-08-21T09:50:42;103.90;;;2.60;;
8938;SDS011;4504;48.810;9.172;2022-08-21T09:53:15;104.07;;;2.70;;
8938;SDS011;4504;48.810;9.172;2022-08-21T09:55:48;106.47;;;2.43;;
8938;SDS011;4504;48.810;9.172;2022-08-21T09:58:42;102.27;;;2.30;;
8938;SDS011;4504;48.810;9.172;2022-08-21T10:01:13;102.00;;;2.30;;
8938;SDS011;4504;48.810;9.172;2022-08-21T10:03:41;104.17;;;2.70;;
8938;SDS011;4504;48.810;9.172;2022-08-21T10:06:19;102.40;;;2.20;;
8938;SDS011;4504;48.810;9.172;2022-08-21T10:08:49;102.00;;;2.50;;
8938;SDS011;4504;48.810;9.172;2022-08-21T10:11:16;100.37;;;2.40;;
8938;SDS011;4504;48.810;9.172;2022-08-21T10:13:51;105.20;;;2.10;;
8938;SDS011;4504;48.810;9.172;2022-08-21T10:16:38;104.30;;;2.50;;
8938;SDS011;4504;48.810;9.172;2022-08-21T10:19:15;103.50;;;2.97;;
8938;SDS011;4504;48.810;9.172;2022-08-21T10:21:53;103.80;;;2.40;;
8938;SDS011;4504;48.810;9.172;2022-08-21T10:24:27;102.33;;;2.60;;
8938;SDS011;4504;48.810;9.172;2022-08-21T10:27:02;101.20;;;2.50;;
8938;SDS011;4504;48.810;9.172;2022-08-21T10:29:39;103.20;;;2.67;;
8938;SDS011;4504;48.810;9.172;2022-08-21T10:32:16;102.50;;;2.70;;
8938;SDS011;4504;48.810;9.172;2022-08-21T10:34:57;101.10;;;2.40;;
8938;SDS011;4504;48.810;9.172;2022-08-21T10:37:35;101.43;;;2.45;;
8938;SDS011;4504;48.810;9.172;2022-08-21T10:40:24;102.45;;;2.50;;
8938;SDS011;4504;48.810;9.172;2022-08-21T10:43:08;101.17;;;1.90;;
8938;SDS011;4504;48.810;9.172;2022-08-21T10:45:47;100.93;;;2.53;;
8938;SDS011;4504;48.810;9.172;2022-08-21T10:48:22;103.20;;;2.50;;
8938;SDS011;4504;48.810;9.172;2022-08-21T10:51:01;101.27;;;2.50;;
8938;SDS011;4504;48.810;9.172;2022-08-21T10:53:36;102.37;;;3.27;;
8938;SDS011;4504;48.810;9.172;2022-08-21T10:56:13;102.23;;;2.43;;
8938;SDS011;4504;48.810;9.172;2022-08-21T10:58:45;103.67;;;2.70;;
8938;SDS011;4504;48.810;9.172;2022-08-21T11:01:20;100.60;;;2.87;;
8938;SDS011;4504;48.810;9.172;2022-08-21T11:03:54;102.17;;;2.37;;
8938;SDS011;4504;48.810;9.172;2022-08-21T11:06:36;99.30;;;2.20;;
8938;SDS011;4504;48.810;9.172;2022-08-21T11:09:09;99.30;;;2.30;;
8938;SDS011;4504;48.810;9.172;2022-08-21T11:11:39;103.57;;;2.73;;
8938;SDS011;4504;48.810;9.172;2022-08-21T11:14:13;103.57;;;2.40;;
8938;SDS011;4504;48.810;9.172;2022-08-21T11:16:49;100.73;;;2.33;;
8938;SDS011;4504;48.810;9.172;2022-08-21T11:19:24;101.17;;;2.50;;
8938;SDS011;4504;48.810;9.172;2022-08-21T11:21:56;100.17;;;2.30;;
8938;SDS011;4504;48.810;9.172;2022-08-21T11:24:32;100.33;;;2.13;;
8938;SDS011;4504;48.810;9.172;2022-08-21T11:27:07;99.97;;;2.20;;
8938;SDS011;4504;48.810;9.172;2022-08-21T11:29:41;99.87;;;2.13;;
8938;SDS011;4504;48.810;9.172;2022-08-21T11:32:20;100.27;;;2.13;;
8938;SDS011;4504;48.810;9.172;2022-08-21T11:35:00;100.13;;;2.50;;
8938;SDS011;4504;48.810;9.172;2022-08-21T11:37:36;99.43;;;2.13;;
8938;SDS011;4504;48.810;9.172;2022-08-21T11:40:16;103.70;;;2.87;;
8938;SDS011;4504;48.810;9.172;2022-08-21T11:42:59;101.70;;;2.70;;
8938;SDS011;4504;48.810;9.172;2022-08-21T11:45:37;101.93;;;2.60;;
8938;SDS011;4504;48.810;9.172;2022-08-21T11:48:11;100.40;;;2.10;;
8938;SDS011;4504;48.810;9.172;2022-08-21T11:50:46;100.80;;;2.40;;
8938;SDS011;4504;48.810;9.172;2022-08-21T11:53:17;100.40;;;2.47;;
8938;SDS011;4504;48.810;9.172;2022-08-21T11:55:52;99.80;;;2.17;;
8938;SDS011;4504;48.810;9.172;2022-08-21T11:58:25;99.80;;;2.10;;
8938;SDS011;4504;48.810;9.172;2022-08-21T12:00:57;97.87;;;2.30;;
8938;SDS011;4504;48.810;9.172;2022-08-21T12:03:28;98.97;;;2.50;;
8938;SDS011;4504;48.810;9.172;2022-08-21T12:05:58;98.97;;;2.00;;
8938;SDS011;4504;48.810;9.172;2022-08-21T12:08:27;100.80;;;2.47;;
8938;SDS011;4504;48.810;9.172;2022-08-21T12:11:02;99.90;;;2.40;;
8938;SDS011;4504;48.810;9.172;2022-08-21T12:13:32;111.40;;;2.43;;
8938;SDS011;4504;48.810;9.172;2022-08-21T12:16:05;105.40;;;2.17;;
8938;SDS011;4504;48.810;9.172;2022-08-21T12:18:34;99.20;;;2.03;;
8938;SDS011;4504;48.810;9.172;2022-08-21T12:21:16;99.03;;;2.07;;
8938;SDS011;4504;48.810;9.172;2022-08-21T12:23:48;100.47;;;2.30;;
8938;SDS011;4504;48.810;9.172;2022-08-21T12:26:30;98.63;;;1.93;;
8938;SDS011;4504;48.810;9.172;2022-08-21T12:29:12;100.03;;;2.20;;
8938;SDS011;4504;48.810;9.172;2022-08-21T12:31:47;100.10;;;2.40;;
8938;SDS011;4504;48.810;9.172;2022-08-21T12:34:17;99.50;;;2.03;;
8938;SDS011;4504;48.810;9.172;2022-08-21T12:36:48;103.93;;;1.90;;
8938;SDS011;4504;48.810;9.172;2022-08-21T12:39:22;99.60;;;2.40;;
8938;SDS011;4504;48.810;9.172;2022-08-21T12:41:53;99.27;;;1.90;;
8938;SDS011;4504;48.810;9.172;2022-08-21T12:44:24;99.70;;;2.30;;
8938;SDS011;4504;48.810;9.172;2022-08-21T12:46:57;98.57;;;1.70;;
8938;SDS011;4504;48.810;9.172;2022-08-21T12:49:28;97.88;;;1.90;;
8938;SDS011;4504;48.810;9.172;2022-08-21T12:52:01;101.30;;;2.10;;
8938;SDS011;4504;48.810;9.172;2022-08-21T12:54:32;99.87;;;1.97;;
8938;SDS011;4504;48.810;9.172;2022-08-21T12:57:06;99.40;;;2.20;;
8938;SDS011;4504;48.810;9.172;2022-08-21T12:59:37;98.87;;;2.00;;
8938;SDS011;4504;48.810;9.172;2022-08-21T13:02:09;97.77;;;2.13;;
8938;SDS011;4504;48.810;9.172;2022-08-21T13:04:42;97.50;;;2.08;;
8938;SDS011;4504;48.810;9.172;2022-08-21T13:07:11;98.93;;;2.20;;
8938;SDS011;4504;48.810;9.172;2022-08-21T13:09:47;98.40;;;2.30;;
8938;SDS011;4504;48.810;9.172;2022-08-21T13:12:20;97.77;;;1.87;;
8938;SDS011;4504;48.810;9.172;2022-08-21T13:14:49;97.70;;;1.63;;
8938;SDS011;4504;48.810;9.172;2022-08-21T13:17:18;98.50;;;2.00;;
8938;SDS011;4504;48.810;9.172;2022-08-21T13:19:57;98.03;;;1.90;;
8938;SDS011;4504;48.810;9.172;2022-08-21T13:22:26;97.97;;;2.00;;
8938;SDS011;4504;48.810;9.172;2022-08-21T13:24:54;96.88;;;1.80;;
8938;SDS011;4504;48.810;9.172;2022-08-21T13:27:24;97.10;;;1.65;;
8938;SDS011;4504;48.810;9.172;2022-08-21T13:32:47;98.47;;;1.83;;
8938;SDS011;4504;48.810;9.172;2022-08-21T13:35:17;96.00;;;1.77;;
8938;SDS011;4504;48.810;9.172;2022-08-21T13:37:46;97.50;;;1.80;;
8938;SDS011;4504;48.810;9.172;2022-08-21T13:40:15;101.07;;;2.00;;
8938;SDS011;4504;48.810;9.172;2022-08-21T13:42:46;97.77;;;1.80;;
8938;SDS011;4504;48.810;9.172;2022-08-21T13:45:15;100.37;;;2.13;;
8938;SDS011;4504;48.810;9.172;2022-08-21T13:47:47;97.03;;;1.50;;
8938;SDS011;4504;48.810;9.172;2022-08-21T13:50:15;98.77;;;2.20;;
8938;SDS011;4504;48.810;9.172;2022-08-21T13:52:46;97.40;;;1.80;;
8938;SDS011;4504;48.810;9.172;2022-08-21T13:55:20;100.10;;;2.50;;
8938;SDS011;4504;48.810;9.172;2022-08-21T13:57:51;97.63;;;1.93;;
8938;SDS011;4504;48.810;9.172;2022-08-21T14:00:26;96.73;;;1.80;;
8938;SDS011;4504;48.810;9.172;2022-08-21T14:02:59;99.47;;;2.07;;
8938;SDS011;4504;48.810;9.172;2022-08-21T14:05:30;97.13;;;1.70;;
8938;SDS011;4504;48.810;9.172;2022-08-21T14:08:02;97.22;;;2.38;;
8938;SDS011;4504;48.810;9.172;2022-08-21T14:10:31;98.23;;;2.13;;
8938;SDS011;4504;48.810;9.172;2022-08-21T14:13:03;96.63;;;1.93;;
8938;SDS011;4504;48.810;9.172;2022-08-21T14:15:32;97.87;;;2.30;;
8938;SDS011;4504;48.810;9.172;2022-08-21T14:18:07;96.80;;;2.60;;
8938;SDS011;4504;48.810;9.172;2022-08-21T14:20:39;96.30;;;2.07;;
8938;SDS011;4504;48.810;9.172;2022-08-21T14:23:06;96.50;;;1.80;;
8938;SDS011;4504;48.810;9.172;2022-08-21T14:25:37;98.30;;;2.53;;
8938;SDS011;4504;48.810;9.172;2022-08-21T14:28:11;98.30;;;2.00;;
8938;SDS011;4504;48.810;9.172;2022-08-21T14:30:44;97.30;;;1.93;;
8938;SDS011;4504;48.810;9.172;2022-08-21T14:33:11;99.93;;;1.97;;
8938;SDS011;4504;48.810;9.172;2022-08-21T14:35:43;97.17;;;1.90;;
8938;SDS011;4504;48.810;9.172;2022-08-21T14:38:13;96.97;;;1.90;;
8938;SDS011;4504;48.810;9.172;2022-08-21T14:40:41;97.43;;;2.20;;
8938;SDS011;4504;48.810;9.172;2022-08-21T14:43:11;98.63;;;2.43;;
8938;SDS011;4504;48.810;9.172;2022-08-21T14:45:38;100.00;;;2.10;;
8938;SDS011;4504;48.810;9.172;2022-08-21T14:48:06;98.30;;;2.00;;
8938;SDS011;4504;48.810;9.172;2022-08-21T14:50:34;96.63;;;1.60;;
8938;SDS011;4504;48.810;9.172;2022-08-21T14:53:01;96.97;;;1.80;;
8938;SDS011;4504;48.810;9.172;2022-08-21T14:55:29;96.07;;;1.77;;
8938;SDS011;4504;48.810;9.172;2022-08-21T14:58:18;98.40;;;1.60;;
8938;SDS011;4504;48.810;9.172;2022-08-21T15:00:48;96.20;;;1.90;;
8938;SDS011;4504;48.810;9.172;2022-08-21T15:03:15;97.10;;;1.80;;
8938;SDS011;4504;48.810;9.172;2022-08-21T15:05:42;99.23;;;2.10;;
8938;SDS011;4504;48.810;9.172;2022-08-21T15:08:09;94.43;;;2.00;;
8938;SDS011;4504;48.810;9.172;2022-08-21T15:10:36;96.10;;;1.70;;
8938;SDS011;4504;48.810;9.172;2022-08-21T15:13:03;95.53;;;1.70;;